Aérodrome :
LOGIN :

S'inscrire | Disclaimer

   EN    FR    IT 

 










Légende :    VFR   VFR Marginal   IFR   IFR Intensif   IFR Très Intensif
Visi : 
Plafond : 
>= 8 km
>= 3000ft
5 à 8 km
1000 à 3000 ft
1500m à 5 km
500 à 1000 ft
800 à 1500m
200 à 500 ft
< 800m
< 200 ft
Symboles :   Orages  Brouillard  Fortes neiges  Fortes précipitations  Vent > 20 kt
SIGMETs :   Divers  Orages  Givrage  Turbulence  Onde Orograph.  Cendres Volcan.







- Altitude de l'aérodrome : 157 ft
- Code IATA : LIL
- Voir les cartes d'approche


LFQQ - Lille Lesquin

DERNIER METAR :
  • 181530Z AUTO 24015KT 9999 OVC025 18/12 Q1022 BECMG 23015G25KT

METARs EXPIRÉS :
  • 181500Z AUTO 24016KT 9999 BKN025 OVC030 18/12 Q1022 BECMG 23015G25KT
  • 181430Z AUTO 23013KT 200V260 9999 BKN021 OVC030 18/13 Q1022 BECMG 23015G25KT
  • 181400Z AUTO 23014KT 9999 BKN024 OVC031 18/13 Q1022 BECMG 23015G25KT
  • 181330Z AUTO 24016KT 9999 SCT026 OVC033 19/13 Q1021 BECMG 23015G25KT
  • 181300Z AUTO 24013KT 9999 BKN028 OVC033 19/13 Q1022 BECMG 23015G25KT

TAF TAF LFQQ
Valide du 18 à 12h jusqu'au 19 à 18h UTC


181100Z 1812/1918 23015G25KT 9999 BKN025
BECMG 1818/1821 23010KT
BECMG 1823/1901 OVC007
TEMPO 1901/1908 OVC003
BECMG 1910/1912 OVC013
BECMG 1912/1915 BKN020
ATIS : +33 3 20 16 19 54
Pas de NOTAMs connus pour ce terrain.



MET'MAP, la Météo Aéronautique d'un coup d'oeil ! - Copyright ORBIFLY Décembre 2007 - Disclaimer

ORBIFLY MET'MAP TEAM :

Programmation & Développement : Alexandra Zaïnal
Conception & Développement : Baudouin d'Aumeries
Co-Programmation & Développement : Marc-Olivier Méhu
Soutien technique & logistique : Manuel Goepfert

Contact : metmap@orbifly.com




SOURCES & CREDITS :

   NOAA